الصفحة الرئيسية
METAR-TAF:

METAR-TAF

مطار :

أديامان, تركيا

دائرة عرض: 37-43-54N, خط طول: 38-28-08E, ارتفاع: 675 متر

مراقبة الطقس الحالي

تاريخ ووقت الإصدار 1ساعة و 19 دقيقة قبل الساعة 03:50UTC
ريح 7 عقدة من الشرق/الشمال الشرقي
درجة الحرارة 28°درجة مئوية
الرطوبة 22%
ضغط 1011 hPa
الرؤية 10 كم أو أكثر
الغيوم لا تقل 1500 م ولا وجود لمزنة ركامية السحاب الأسود

METAR: LTCP 190350Z 07007KT CAVOK 28/04 Q1011

زمن: 08:09 (05:09 UTC)

توقعات

تاريخ ووقت الإصدار 3ساعات و 29 دقيقة قبل الساعة 01:40UTC
التوقعات صالحة من19 الساعة 03 UTC إلى 19 الساعة 12 UTC
ريح 2 عقدةمن اتجاهات متغيرة
الرؤية 10 كم أو أكثر
الغيوم لا تقل 1500 م ولا وجود لمزنة ركامية السحاب الأسود

TAF: LTCP 190140Z 1903/1912 VRB02KT CAVOK

أرصاد الطقس والتوقعات من أكثر من 4000 مطار (تقارير الطقس للمطار METAR والتنبؤ بالطقس بالمطارTAF).

المحطات المتاحة هي النقط الصفراء والحمراء على الخريطة.

حرك المؤشر فوق النقطة لمعرفة اسم المحطة.

ثم انقر لمعرفة أرصاد وتوقعات الطقس.

لتغيير الخارطة: اضغط على الأزرار الخضراء مع رمز الصليب الأسود للتكبير. على الزر الأخضر مع شرطة للتصغير، أو على الأسهم الخضراء للخرائط المجاورة.


METAR-TAF: